Findern, United Kingdom
Current Conditions -  °F | °C
As of 3:20 AM on Tuesday 27 Jan 2015 (Local Time) from EGNX Reporting Station
Few Clouds Few Clouds  
Wind Chill: 32°   Ceiling: Unl
Heat Index: 39°   Visibility: 6mi
Dew Point: 37°   Wind: 13mph
Humidity: 93%   Direction: 270°W
Pressure: 30.33"   Gusts: NA
Location:  52.87°N, 1.54°W
Report Text: EGNX 270320Z 27011KT 9999 FEW016 04/03 Q1027
Loading
Personal Weather Stations






























Interactive Weather Map New forecast layout! Learn more

10-Day Weather Forecast

Advertisements
Track Severe Weather on mobile